Time;durP1;ratioP1;P1;durP2;ratioP2;P2;SDS_P1;SDS_P2;PMS_P1;PMS_P2;Temp;Humidity;BMP_temperature;BMP_pressure;BME280_temperature;BME280_humidity;BME280_pressure;Samples;Min_cycle;Max_cycle;Signal;HPM_P1;HPM_P2
2021/10/09 00:10:37;;;;;;;14.90;13.30;;;;;;;;;;10425397;28;20072;-86
2021/10/09 00:38:39;;;;;;;12.15;10.95;;;;;;;;;;10259110;29;20039;-86
2021/10/09 00:44:33;;;;;;;11.85;10.63;;;;;;;;;;10245389;29;20414;-86
2021/10/09 00:55:55;;;;;;;12.32;11.02;;;;;;;;;;10217626;29;20039;-86
2021/10/09 01:06:55;;;;;;;19.55;17.45;;;;;;;;;;10261345;29;20023;-87
2021/10/09 01:12:32;;;;;;;13.45;12.05;;;;;;;;;;10221921;29;20083;-87
2021/10/09 01:17:57;;;;;;;11.70;10.50;;;;;;;;;;10219996;29;20426;-87
2021/10/09 01:23:04;;;;;;;11.85;10.60;;;;;;;;;;10249202;28;20077;-87
2021/10/09 01:28:06;;;;;;;10.23;9.23;;;;;;;;;;10377635;28;20384;-87
2021/10/09 01:33:08;;;;;;;15.15;12.40;;;;;;;;;;10421632;28;20091;-87
2021/10/09 01:38:09;;;;;;;13.07;11.65;;;;;;;;;;10421184;28;20045;-86
2021/10/09 01:43:11;;;;;;;10.77;9.68;;;;;;;;;;10401013;28;20041;-86
2021/10/09 01:48:12;;;;;;;10.15;9.15;;;;;;;;;;10400635;28;20034;-86
2021/10/09 01:53:13;;;;;;;11.70;10.50;;;;;;;;;;10399856;28;20034;-86
2021/10/09 01:58:14;;;;;;;11.18;10.00;;;;;;;;;;10401676;28;20037;-86
2021/10/09 02:03:20;;;;;;;16.77;10.52;;;;;;;;;;10416869;28;20045;-86
2021/10/09 02:08:21;;;;;;;10.75;9.65;;;;;;;;;;10437515;28;20029;-86
2021/10/09 02:13:40;;;;;;;12.73;11.23;;;;;;;;;;10441303;28;20038;-86
2021/10/09 02:19:02;;;;;;;12.68;11.38;;;;;;;;;;10447815;28;20029;-86
2021/10/09 02:24:13;;;;;;;11.70;10.45;;;;;;;;;;10445442;28;20029;-86
2021/10/09 02:29:15;;;;;;;12.50;11.20;;;;;;;;;;10424880;28;20048;-86
2021/10/09 02:34:16;;;;;;;9.90;8.93;;;;;;;;;;10439948;28;20018;-86
2021/10/09 02:39:17;;;;;;;11.65;9.95;;;;;;;;;;10455961;28;20089;-86
2021/10/09 02:44:18;;;;;;;11.75;10.30;;;;;;;;;;10449016;28;20038;-86
2021/10/09 02:49:19;;;;;;;12.80;11.50;;;;;;;;;;10435069;28;20442;-86
2021/10/09 02:54:20;;;;;;;15.35;13.75;;;;;;;;;;10419321;28;20049;-86
2021/10/09 02:59:21;;;;;;;13.60;12.20;;;;;;;;;;10415300;28;20080;-86
2021/10/09 03:04:22;;;;;;;11.93;10.73;;;;;;;;;;10406373;28;20041;-86
2021/10/09 03:09:23;;;;;;;12.48;11.18;;;;;;;;;;10404438;28;20033;-86
2021/10/09 03:14:25;;;;;;;11.20;8.95;;;;;;;;;;10406449;28;20044;-86
2021/10/09 03:19:26;;;;;;;13.07;11.63;;;;;;;;;;10404943;28;20033;-86
2021/10/09 03:24:27;;;;;;;11.38;10.25;;;;;;;;;;10405886;28;20041;-86
2021/10/09 03:29:28;;;;;;;11.20;10.05;;;;;;;;;;10405186;28;20183;-86
2021/10/09 03:34:32;;;;;;;12.02;10.75;;;;;;;;;;10404696;28;20030;-86
2021/10/09 03:39:36;;;;;;;11.75;10.50;;;;;;;;;;10406369;28;20041;-86
2021/10/09 03:44:45;;;;;;;13.68;12.18;;;;;;;;;;10403937;28;20033;-86
2021/10/09 03:49:57;;;;;;;13.95;12.48;;;;;;;;;;10405066;28;20103;-86
2021/10/09 03:54:58;;;;;;;13.57;11.57;;;;;;;;;;10404172;28;20033;-86
2021/10/09 04:06:10;;;;;;;15.20;13.57;;;;;;;;;;10421772;28;20144;-84
2021/10/09 04:11:44;;;;;;;13.07;11.70;;;;;;;;;;10381879;28;20523;-85
2021/10/09 04:16:45;;;;;;;13.18;11.30;;;;;;;;;;10365526;28;20443;-83
2021/10/09 04:21:49;;;;;;;11.70;10.50;;;;;;;;;;10361900;28;20030;-85
2021/10/09 04:26:50;;;;;;;13.45;11.88;;;;;;;;;;10348612;28;20420;-84
2021/10/09 04:37:34;;;;;;;12.80;9.77;;;;;;;;;;10383289;28;20037;-84
2021/10/09 04:48:16;;;;;;;14.90;13.27;;;;;;;;;;10382948;28;20543;-83
2021/10/09 04:53:17;;;;;;;14.13;12.63;;;;;;;;;;10380210;28;20045;-84
2021/10/09 04:58:40;;;;;;;15.93;13.48;;;;;;;;;;10383323;28;20038;-83
2021/10/09 05:09:19;;;;;;;14.45;12.93;;;;;;;;;;10383787;28;20038;-84
2021/10/09 05:14:20;;;;;;;14.63;13.00;;;;;;;;;;10381713;28;20125;-84
2021/10/09 05:19:21;;;;;;;10.38;9.27;;;;;;;;;;10382043;28;20385;-83
2021/10/09 05:24:22;;;;;;;14.23;11.98;;;;;;;;;;10382342;28;20052;-84
2021/10/09 05:29:24;;;;;;;16.63;14.05;;;;;;;;;;10383298;28;20064;-84
2021/10/09 05:34:25;;;;;;;13.88;12.23;;;;;;;;;;10382298;28;20030;-84
2021/10/09 05:39:26;;;;;;;14.45;12.82;;;;;;;;;;10380345;28;20053;-83
2021/10/09 05:44:27;;;;;;;11.20;10.10;;;;;;;;;;10380726;28;20049;-83
2021/10/09 05:49:28;;;;;;;9.63;8.63;;;;;;;;;;10380685;28;20033;-84
2021/10/09 05:54:53;;;;;;;15.35;13.70;;;;;;;;;;10381453;28;20077;-83
2021/10/09 07:03:10;;;;;;;11.90;10.60;;;;;;;;;;10405161;28;20034;-78
2021/10/09 07:08:11;;;;;;;13.18;11.52;;;;;;;;;;10392273;28;20052;-85
2021/10/09 07:13:12;;;;;;;15.13;12.90;;;;;;;;;;10401408;28;20046;-84
2021/10/09 07:18:16;;;;;;;16.58;13.45;;;;;;;;;;10403957;28;20041;-84
2021/10/09 07:23:17;;;;;;;22.77;18.25;;;;;;;;;;10401269;28;20034;-84
2021/10/09 07:28:18;;;;;;;24.35;20.80;;;;;;;;;;10403899;28;20539;-87
2021/10/09 07:33:22;;;;;;;34.88;28.17;;;;;;;;;;10404440;28;20038;-83
2021/10/09 07:38:23;;;;;;;24.13;20.17;;;;;;;;;;10403857;28;20065;-85
2021/10/09 07:43:24;;;;;;;22.60;19.70;;;;;;;;;;10405958;28;20045;-84
2021/10/09 07:48:25;;;;;;;29.90;23.58;;;;;;;;;;10407728;28;20038;-83
2021/10/09 07:53:26;;;;;;;25.88;21.85;;;;;;;;;;10408576;28;20133;-84
2021/10/09 07:58:27;;;;;;;23.92;20.83;;;;;;;;;;10406010;28;20038;-85
2021/10/09 08:03:28;;;;;;;26.60;21.63;;;;;;;;;;10412439;28;20480;-85
2021/10/09 08:08:30;;;;;;;21.08;17.80;;;;;;;;;;10412701;28;20052;-86
2021/10/09 08:13:32;;;;;;;12.95;11.63;;;;;;;;;;10401130;28;20037;-88
2021/10/09 08:18:33;;;;;;;18.33;12.52;;;;;;;;;;10387107;28;20048;-86
2021/10/09 08:40:35;;;;;;;16.50;13.75;;;;;;;;;;10305198;28;20111;-86
2021/10/09 08:46:09;;;;;;;16.98;13.75;;;;;;;;;;10337625;28;20400;-85
2021/10/09 08:51:12;;;;;;;18.75;13.48;;;;;;;;;;10396388;28;20030;-85
2021/10/09 09:02:11;;;;;;;18.98;12.98;;;;;;;;;;10397543;28;20021;-86
2021/10/09 11:55:56;;;;;;;16.17;11.18;;;;;;;;;;10425413;28;19908;-89
2021/10/09 12:00:57;;;;;;;15.52;12.02;;;;;;;;;;10392510;28;20038;-87
2021/10/09 12:06:10;;;;;;;19.17;13.88;;;;;;;;;;10417881;28;20037;-86
2021/10/09 12:11:12;;;;;;;13.63;11.30;;;;;;;;;;10409147;28;20507;-87
2021/10/09 12:16:13;;;;;;;14.90;11.85;;;;;;;;;;10405011;28;20029;-87
2021/10/09 12:21:14;;;;;;;21.33;12.98;;;;;;;;;;10427957;28;20064;-86
2021/10/09 12:26:16;;;;;;;20.33;13.15;;;;;;;;;;10432466;28;20087;-86
2021/10/09 12:31:27;;;;;;;17.30;11.85;;;;;;;;;;10433550;28;20041;-86
2021/10/09 12:36:32;;;;;;;18.40;13.60;;;;;;;;;;10407688;28;20045;-86
2021/10/09 12:41:33;;;;;;;16.17;12.45;;;;;;;;;;10408995;28;20037;-87
2021/10/09 12:46:33;;;;;;;12.40;10.45;;;;;;;;;;10405667;28;20488;-87
2021/10/09 12:51:34;;;;;;;16.23;12.95;;;;;;;;;;10402392;28;20034;-87
2021/10/09 12:57:09;;;;;;;18.05;13.00;;;;;;;;;;10401783;28;20451;-87
2021/10/09 13:02:09;;;;;;;17.35;13.30;;;;;;;;;;10426054;28;20021;-84
2021/10/09 13:07:19;;;;;;;18.80;13.90;;;;;;;;;;10406587;28;20083;-87
2021/10/09 13:12:20;;;;;;;12.45;10.13;;;;;;;;;;10401447;28;20041;-88
2021/10/09 13:17:21;;;;;;;15.38;12.00;;;;;;;;;;10402037;28;20025;-88
2021/10/09 13:22:25;;;;;;;14.82;11.40;;;;;;;;;;10400254;28;20041;-88
2021/10/09 13:27:26;;;;;;;19.58;13.13;;;;;;;;;;10401257;28;20395;-88
2021/10/09 13:32:27;;;;;;;16.98;12.98;;;;;;;;;;10401397;28;20041;-88
2021/10/09 13:37:46;;;;;;;16.15;11.45;;;;;;;;;;10419444;28;20055;-88
2021/10/09 13:42:47;;;;;;;14.02;11.13;;;;;;;;;;10403034;28;20033;-89
2021/10/09 13:47:48;;;;;;;15.10;12.20;;;;;;;;;;10402203;28;20120;-87
2021/10/09 13:52:49;;;;;;;18.23;11.43;;;;;;;;;;10399998;28;20045;-87
2021/10/09 13:57:50;;;;;;;19.17;13.85;;;;;;;;;;10417286;28;20044;-88
2021/10/09 14:02:51;;;;;;;16.45;11.80;;;;;;;;;;10400811;28;20112;-87
2021/10/09 14:07:52;;;;;;;20.70;12.85;;;;;;;;;;10399300;28;20403;-88
2021/10/09 14:12:53;;;;;;;22.20;14.32;;;;;;;;;;10399174;28;20101;-88
2021/10/09 14:17:54;;;;;;;17.40;12.65;;;;;;;;;;10399604;28;20034;-88
2021/10/09 14:22:55;;;;;;;14.40;11.85;;;;;;;;;;10399210;28;20037;-87
2021/10/09 14:27:56;;;;;;;18.55;12.30;;;;;;;;;;10398841;28;20106;-88
2021/10/09 14:32:57;;;;;;;13.82;10.05;;;;;;;;;;10399270;28;20036;-88
2021/10/09 14:37:58;;;;;;;19.50;11.18;;;;;;;;;;10398998;28;20128;-87
2021/10/09 14:42:59;;;;;;;16.00;11.18;;;;;;;;;;10399506;28;20114;-88
2021/10/09 14:48:16;;;;;;;13.85;9.68;;;;;;;;;;10416744;28;20041;-87
2021/10/09 15:19:42;;;;;;;11.02;8.93;;;;;;;;;;10459799;28;20092;-86
2021/10/09 15:24:44;;;;;;;11.90;9.52;;;;;;;;;;10432684;28;20041;-86
2021/10/09 15:29:45;;;;;;;14.68;11.65;;;;;;;;;;10442571;28;20424;-87
2021/10/09 15:34:46;;;;;;;18.33;9.65;;;;;;;;;;10407924;28;20033;-87
2021/10/09 15:39:47;;;;;;;10.73;8.63;;;;;;;;;;10409340;28;20403;-87
2021/10/09 15:44:48;;;;;;;16.63;10.75;;;;;;;;;;10407547;28;20045;-88
2021/10/09 15:49:49;;;;;;;12.25;9.10;;;;;;;;;;10423009;28;20045;-87
2021/10/09 15:54:50;;;;;;;11.88;9.50;;;;;;;;;;10404222;28;20040;-87
2021/10/09 19:35:53;;;;;;;12.82;10.80;;;;;;;;;;10422542;28;20014;-88
2021/10/09 20:16:39;;;;;;;12.32;9.55;;;;;;;;;;10332985;28;20104;-87
2021/10/09 20:22:08;;;;;;;12.40;9.52;;;;;;;;;;10178081;29;20040;-87
2021/10/09 20:27:10;;;;;;;10.27;9.00;;;;;;;;;;10464102;28;20089;-88
2021/10/09 20:32:17;;;;;;;10.80;9.27;;;;;;;;;;10529057;28;20036;-86
2021/10/09 20:37:46;;;;;;;14.98;10.38;;;;;;;;;;10527698;28;20383;-88
2021/10/09 20:43:19;;;;;;;12.05;9.98;;;;;;;;;;10527849;28;20397;-88
2021/10/09 20:49:04;;;;;;;11.15;9.20;;;;;;;;;;10528910;28;20397;-87
2021/10/09 20:54:47;;;;;;;10.10;8.95;;;;;;;;;;10381987;28;20089;-88
2021/10/09 21:00:29;;;;;;;11.00;9.13;;;;;;;;;;10319072;28;20041;-87
2021/10/09 21:06:01;;;;;;;;;;;;;;;;;;;;;
2021/10/09 21:45:32;;;;;;;10.90;8.90;;;;;;;;;;10338810;28;20046;-87
2021/10/09 21:56:44;;;;;;;12.85;9.88;;;;;;;;;;10473949;22;20104;-86
2021/10/09 22:07:33;;;;;;;10.53;8.77;;;;;;;;;;10524645;28;20036;-87
2021/10/09 22:33:38;;;;;;;9.63;8.18;;;;;;;;;;10520203;28;20433;-86
2021/10/09 22:38:40;;;;;;;11.43;8.55;;;;;;;;;;10501222;28;20087;-85
2021/10/09 22:43:42;;;;;;;10.63;8.80;;;;;;;;;;10500728;28;20047;-85
2021/10/09 22:48:43;;;;;;;9.40;7.53;;;;;;;;;;10499410;28;20461;-86
2021/10/09 22:53:44;;;;;;;9.73;7.90;;;;;;;;;;10497731;28;20172;-86
2021/10/09 22:58:54;;;;;;;9.25;8.25;;;;;;;;;;10498275;28;20075;-85
2021/10/09 23:03:55;;;;;;;9.07;7.97;;;;;;;;;;10498123;28;20091;-85
2021/10/09 23:08:56;;;;;;;9.82;8.30;;;;;;;;;;10496444;28;20040;-85
2021/10/09 23:13:58;;;;;;;9.00;8.07;;;;;;;;;;10505685;28;20005;-82
2021/10/09 23:18:59;;;;;;;10.60;8.40;;;;;;;;;;10522239;28;20036;-85
2021/10/09 23:24:00;;;;;;;10.13;8.20;;;;;;;;;;10512939;28;20059;-84
2021/10/09 23:29:02;;;;;;;8.85;7.95;;;;;;;;;;10494055;28;20063;-84
2021/10/09 23:34:03;;;;;;;9.98;8.18;;;;;;;;;;10490603;28;20056;-84
2021/10/09 23:39:09;;;;;;;9.80;8.75;;;;;;;;;;10490789;28;20094;-84
2021/10/09 23:44:13;;;;;;;9.77;8.38;;;;;;;;;;10493129;28;20029;-84
2021/10/09 23:49:13;;;;;;;9.45;8.30;;;;;;;;;;10533989;28;20039;-82
2021/10/09 23:54:15;;;;;;;9.82;8.57;;;;;;;;;;10526728;28;20033;-84
2021/10/09 23:59:16;;;;;;;8.52;7.63;;;;;;;;;;10487416;28;20082;-84
